sensor_id;sensor_type;location;lat;lon;timestamp;P1;durP1;ratioP1;P2;durP2;ratioP2
40555;SDS011;26250;45.422;11.100;2022-07-29T00:00:03;2.47;;;2.28;;
40555;SDS011;26250;45.422;11.100;2022-07-29T00:02:33;2.42;;;2.25;;
40555;SDS011;26250;45.422;11.100;2022-07-29T00:05:01;5.47;;;2.25;;
40555;SDS011;26250;45.422;11.100;2022-07-29T00:07:29;3.30;;;2.70;;
40555;SDS011;26250;45.422;11.100;2022-07-29T00:09:56;3.85;;;2.47;;
40555;SDS011;26250;45.422;11.100;2022-07-29T00:12:23;3.13;;;2.85;;
40555;SDS011;26250;45.422;11.100;2022-07-29T00:14:53;4.60;;;2.72;;
40555;SDS011;26250;45.422;11.100;2022-07-29T00:17:21;4.07;;;3.05;;
40555;SDS011;26250;45.422;11.100;2022-07-29T00:19:49;4.05;;;2.33;;
40555;SDS011;26250;45.422;11.100;2022-07-29T00:22:16;6.53;;;2.70;;
40555;SDS011;26250;45.422;11.100;2022-07-29T00:24:43;3.92;;;2.40;;
40555;SDS011;26250;45.422;11.100;2022-07-29T00:27:10;2.67;;;2.47;;
40555;SDS011;26250;45.422;11.100;2022-07-29T00:29:37;4.38;;;3.08;;
40555;SDS011;26250;45.422;11.100;2022-07-29T00:32:04;2.42;;;2.20;;
40555;SDS011;26250;45.422;11.100;2022-07-29T00:34:32;2.38;;;2.17;;
40555;SDS011;26250;45.422;11.100;2022-07-29T00:37:17;3.10;;;2.13;;
40555;SDS011;26250;45.422;11.100;2022-07-29T00:39:44;4.03;;;2.40;;
40555;SDS011;26250;45.422;11.100;2022-07-29T00:42:11;6.80;;;2.30;;
40555;SDS011;26250;45.422;11.100;2022-07-29T00:44:39;7.43;;;2.83;;
40555;SDS011;26250;45.422;11.100;2022-07-29T00:47:07;4.22;;;3.10;;
40555;SDS011;26250;45.422;11.100;2022-07-29T00:49:35;3.95;;;2.50;;
40555;SDS011;26250;45.422;11.100;2022-07-29T00:52:03;2.50;;;2.30;;
40555;SDS011;26250;45.422;11.100;2022-07-29T00:54:32;6.05;;;2.60;;
40555;SDS011;26250;45.422;11.100;2022-07-29T00:57:02;10.55;;;2.42;;
40555;SDS011;26250;45.422;11.100;2022-07-29T00:59:31;2.70;;;2.50;;
40555;SDS011;26250;45.422;11.100;2022-07-29T01:02:01;4.65;;;2.60;;
40555;SDS011;26250;45.422;11.100;2022-07-29T01:04:30;3.30;;;2.63;;
40555;SDS011;26250;45.422;11.100;2022-07-29T01:06:57;15.43;;;3.08;;
40555;SDS011;26250;45.422;11.100;2022-07-29T01:09:26;2.72;;;2.53;;
40555;SDS011;26250;45.422;11.100;2022-07-29T01:12:15;3.28;;;2.78;;
40555;SDS011;26250;45.422;11.100;2022-07-29T01:14:46;3.00;;;2.70;;
40555;SDS011;26250;45.422;11.100;2022-07-29T01:17:20;2.80;;;2.60;;
40555;SDS011;26250;45.422;11.100;2022-07-29T01:20:00;4.22;;;3.20;;
40555;SDS011;26250;45.422;11.100;2022-07-29T01:30:29;3.08;;;2.40;;
40555;SDS011;26250;45.422;11.100;2022-07-29T01:33:00;3.95;;;3.17;;
40555;SDS011;26250;45.422;11.100;2022-07-29T01:35:34;5.50;;;3.65;;
40555;SDS011;26250;45.422;11.100;2022-07-29T01:40:47;4.15;;;2.90;;
40555;SDS011;26250;45.422;11.100;2022-07-29T01:43:20;2.93;;;2.67;;
40555;SDS011;26250;45.422;11.100;2022-07-29T01:45:56;3.20;;;2.85;;
40555;SDS011;26250;45.422;11.100;2022-07-29T01:48:27;3.40;;;2.80;;
40555;SDS011;26250;45.422;11.100;2022-07-29T01:56:47;3.58;;;3.15;;
40555;SDS011;26250;45.422;11.100;2022-07-29T01:59:17;4.15;;;3.00;;
40555;SDS011;26250;45.422;11.100;2022-07-29T02:01:46;4.10;;;2.67;;
40555;SDS011;26250;45.422;11.100;2022-07-29T02:04:15;4.28;;;3.15;;
40555;SDS011;26250;45.422;11.100;2022-07-29T02:06:57;3.45;;;2.53;;
40555;SDS011;26250;45.422;11.100;2022-07-29T02:11:55;5.05;;;3.63;;
40555;SDS011;26250;45.422;11.100;2022-07-29T02:14:24;5.35;;;3.97;;
40555;SDS011;26250;45.422;11.100;2022-07-29T02:16:54;5.32;;;2.85;;
40555;SDS011;26250;45.422;11.100;2022-07-29T02:19:24;5.82;;;2.80;;
40555;SDS011;26250;45.422;11.100;2022-07-29T02:21:53;4.03;;;2.72;;
40555;SDS011;26250;45.422;11.100;2022-07-29T02:24:22;6.60;;;3.28;;
40555;SDS011;26250;45.422;11.100;2022-07-29T02:26:51;4.70;;;3.15;;
40555;SDS011;26250;45.422;11.100;2022-07-29T02:29:22;9.90;;;3.47;;
40555;SDS011;26250;45.422;11.100;2022-07-29T02:31:51;4.97;;;3.45;;
40555;SDS011;26250;45.422;11.100;2022-07-29T02:34:20;8.80;;;4.03;;
40555;SDS011;26250;45.422;11.100;2022-07-29T02:36:48;3.40;;;3.05;;
40555;SDS011;26250;45.422;11.100;2022-07-29T02:39:16;4.75;;;3.63;;
40555;SDS011;26250;45.422;11.100;2022-07-29T02:41:45;3.70;;;3.40;;
40555;SDS011;26250;45.422;11.100;2022-07-29T02:44:18;2.88;;;2.67;;
40555;SDS011;26250;45.422;11.100;2022-07-29T02:46:54;4.22;;;3.70;;
40555;SDS011;26250;45.422;11.100;2022-07-29T02:51:58;3.92;;;3.53;;
40555;SDS011;26250;45.422;11.100;2022-07-29T03:00:21;4.63;;;3.35;;
40555;SDS011;26250;45.422;11.100;2022-07-29T03:02:54;4.00;;;3.28;;
40555;SDS011;26250;45.422;11.100;2022-07-29T03:05:24;7.20;;;2.92;;
40555;SDS011;26250;45.422;11.100;2022-07-29T03:07:54;7.80;;;3.42;;
40555;SDS011;26250;45.422;11.100;2022-07-29T03:10:24;4.43;;;3.63;;
40555;SDS011;26250;45.422;11.100;2022-07-29T03:12:52;12.23;;;3.85;;
40555;SDS011;26250;45.422;11.100;2022-07-29T03:15:21;5.68;;;3.50;;
40555;SDS011;26250;45.422;11.100;2022-07-29T03:17:50;6.70;;;3.80;;
40555;SDS011;26250;45.422;11.100;2022-07-29T03:20:18;4.47;;;3.45;;
40555;SDS011;26250;45.422;11.100;2022-07-29T03:22:45;4.80;;;4.22;;
40555;SDS011;26250;45.422;11.100;2022-07-29T03:25:16;11.48;;;4.13;;
40555;SDS011;26250;45.422;11.100;2022-07-29T03:27:44;4.13;;;3.63;;
40555;SDS011;26250;45.422;11.100;2022-07-29T03:30:13;5.43;;;4.28;;
40555;SDS011;26250;45.422;11.100;2022-07-29T03:32:47;5.40;;;3.72;;
40555;SDS011;26250;45.422;11.100;2022-07-29T03:35:18;8.07;;;4.50;;
40555;SDS011;26250;45.422;11.100;2022-07-29T03:37:46;9.30;;;3.95;;
40555;SDS011;26250;45.422;11.100;2022-07-29T03:40:15;4.15;;;3.70;;
40555;SDS011;26250;45.422;11.100;2022-07-29T03:42:45;5.05;;;3.33;;
40555;SDS011;26250;45.422;11.100;2022-07-29T03:45:15;17.30;;;3.70;;
40555;SDS011;26250;45.422;11.100;2022-07-29T03:47:48;8.27;;;3.63;;
40555;SDS011;26250;45.422;11.100;2022-07-29T03:50:23;7.10;;;3.72;;
40555;SDS011;26250;45.422;11.100;2022-07-29T03:52:51;3.17;;;2.95;;
40555;SDS011;26250;45.422;11.100;2022-07-29T03:55:18;3.70;;;3.00;;
40555;SDS011;26250;45.422;11.100;2022-07-29T03:57:45;5.75;;;3.72;;
40555;SDS011;26250;45.422;11.100;2022-07-29T04:00:14;7.75;;;3.38;;
40555;SDS011;26250;45.422;11.100;2022-07-29T04:02:43;9.00;;;3.53;;
40555;SDS011;26250;45.422;11.100;2022-07-29T04:05:14;5.53;;;3.60;;
40555;SDS011;26250;45.422;11.100;2022-07-29T04:07:45;5.07;;;3.65;;
40555;SDS011;26250;45.422;11.100;2022-07-29T04:10:13;5.78;;;3.22;;
40555;SDS011;26250;45.422;11.100;2022-07-29T04:12:42;10.75;;;3.97;;
40555;SDS011;26250;45.422;11.100;2022-07-29T04:15:09;3.60;;;2.88;;
40555;SDS011;26250;45.422;11.100;2022-07-29T04:17:37;5.75;;;2.88;;
40555;SDS011;26250;45.422;11.100;2022-07-29T04:20:04;10.55;;;3.78;;
40555;SDS011;26250;45.422;11.100;2022-07-29T04:22:32;13.52;;;4.20;;
40555;SDS011;26250;45.422;11.100;2022-07-29T04:24:59;7.70;;;3.97;;
40555;SDS011;26250;45.422;11.100;2022-07-29T04:27:29;6.45;;;3.53;;
40555;SDS011;26250;45.422;11.100;2022-07-29T04:29:56;4.15;;;2.85;;
40555;SDS011;26250;45.422;11.100;2022-07-29T04:32:24;6.68;;;3.50;;
40555;SDS011;26250;45.422;11.100;2022-07-29T04:34:51;3.35;;;3.05;;
40555;SDS011;26250;45.422;11.100;2022-07-29T04:37:18;4.50;;;2.58;;
40555;SDS011;26250;45.422;11.100;2022-07-29T04:39:45;10.07;;;3.50;;
40555;SDS011;26250;45.422;11.100;2022-07-29T04:42:12;6.10;;;2.97;;
40555;SDS011;26250;45.422;11.100;2022-07-29T04:44:39;4.28;;;3.17;;
40555;SDS011;26250;45.422;11.100;2022-07-29T04:47:08;4.38;;;3.50;;
40555;SDS011;26250;45.422;11.100;2022-07-29T04:49:38;6.47;;;4.50;;
40555;SDS011;26250;45.422;11.100;2022-07-29T04:52:05;8.25;;;4.15;;
40555;SDS011;26250;45.422;11.100;2022-07-29T04:54:32;6.57;;;4.05;;
40555;SDS011;26250;45.422;11.100;2022-07-29T04:57:00;3.25;;;2.92;;
40555;SDS011;26250;45.422;11.100;2022-07-29T04:59:27;7.28;;;4.32;;
40555;SDS011;26250;45.422;11.100;2022-07-29T05:01:54;6.40;;;4.32;;
40555;SDS011;26250;45.422;11.100;2022-07-29T05:04:21;4.85;;;3.63;;
40555;SDS011;26250;45.422;11.100;2022-07-29T05:06:49;4.97;;;4.07;;
40555;SDS011;26250;45.422;11.100;2022-07-29T05:09:16;4.90;;;3.85;;
40555;SDS011;26250;45.422;11.100;2022-07-29T05:11:43;7.57;;;4.28;;
40555;SDS011;26250;45.422;11.100;2022-07-29T05:14:10;5.57;;;4.40;;
40555;SDS011;26250;45.422;11.100;2022-07-29T05:16:37;8.18;;;4.95;;
40555;SDS011;26250;45.422;11.100;2022-07-29T05:19:05;11.20;;;5.53;;
40555;SDS011;26250;45.422;11.100;2022-07-29T05:21:39;13.65;;;5.82;;
40555;SDS011;26250;45.422;11.100;2022-07-29T05:24:06;9.35;;;5.90;;
40555;SDS011;26250;45.422;11.100;2022-07-29T05:26:33;10.55;;;5.88;;
40555;SDS011;26250;45.422;11.100;2022-07-29T05:29:00;8.35;;;5.30;;
40555;SDS011;26250;45.422;11.100;2022-07-29T05:31:26;10.18;;;5.22;;
40555;SDS011;26250;45.422;11.100;2022-07-29T05:33:53;11.95;;;5.45;;
40555;SDS011;26250;45.422;11.100;2022-07-29T05:36:20;8.57;;;5.07;;
40555;SDS011;26250;45.422;11.100;2022-07-29T05:38:47;7.85;;;4.75;;
40555;SDS011;26250;45.422;11.100;2022-07-29T05:41:14;6.65;;;4.85;;
40555;SDS011;26250;45.422;11.100;2022-07-29T05:43:41;10.65;;;3.90;;
40555;SDS011;26250;45.422;11.100;2022-07-29T05:46:08;8.00;;;3.95;;
40555;SDS011;26250;45.422;11.100;2022-07-29T05:48:35;6.95;;;4.90;;
40555;SDS011;26250;45.422;11.100;2022-07-29T05:51:02;7.95;;;4.05;;
40555;SDS011;26250;45.422;11.100;2022-07-29T05:53:29;5.70;;;4.97;;
40555;SDS011;26250;45.422;11.100;2022-07-29T05:55:56;9.05;;;3.88;;
40555;SDS011;26250;45.422;11.100;2022-07-29T05:58:23;5.93;;;4.75;;
40555;SDS011;26250;45.422;11.100;2022-07-29T06:00:50;5.28;;;3.40;;
40555;SDS011;26250;45.422;11.100;2022-07-29T06:03:17;5.63;;;4.70;;
40555;SDS011;26250;45.422;11.100;2022-07-29T06:05:44;9.70;;;4.55;;
40555;SDS011;26250;45.422;11.100;2022-07-29T06:08:11;5.18;;;4.57;;
40555;SDS011;26250;45.422;11.100;2022-07-29T06:10:38;6.75;;;4.28;;
40555;SDS011;26250;45.422;11.100;2022-07-29T06:13:05;15.98;;;5.53;;
40555;SDS011;26250;45.422;11.100;2022-07-29T06:15:32;7.15;;;4.85;;
40555;SDS011;26250;45.422;11.100;2022-07-29T06:17:59;9.13;;;4.40;;
40555;SDS011;26250;45.422;11.100;2022-07-29T06:20:28;4.70;;;3.58;;
40555;SDS011;26250;45.422;11.100;2022-07-29T06:22:57;4.93;;;3.55;;
40555;SDS011;26250;45.422;11.100;2022-07-29T06:25:24;10.43;;;3.00;;
40555;SDS011;26250;45.422;11.100;2022-07-29T06:27:51;9.93;;;3.58;;
40555;SDS011;26250;45.422;11.100;2022-07-29T06:30:18;5.80;;;3.10;;
40555;SDS011;26250;45.422;11.100;2022-07-29T06:32:45;5.72;;;3.47;;
40555;SDS011;26250;45.422;11.100;2022-07-29T06:35:13;3.97;;;3.58;;
40555;SDS011;26250;45.422;11.100;2022-07-29T06:38:00;7.40;;;3.28;;
40555;SDS011;26250;45.422;11.100;2022-07-29T06:40:50;4.60;;;3.28;;
40555;SDS011;26250;45.422;11.100;2022-07-29T06:43:30;3.83;;;2.80;;
40555;SDS011;26250;45.422;11.100;2022-07-29T06:46:16;6.13;;;3.70;;
40555;SDS011;26250;45.422;11.100;2022-07-29T06:48:45;7.63;;;3.65;;
40555;SDS011;26250;45.422;11.100;2022-07-29T06:51:13;5.53;;;3.33;;
40555;SDS011;26250;45.422;11.100;2022-07-29T06:53:41;8.40;;;3.75;;
40555;SDS011;26250;45.422;11.100;2022-07-29T06:56:27;4.57;;;2.85;;
40555;SDS011;26250;45.422;11.100;2022-07-29T06:58:54;8.05;;;3.25;;
40555;SDS011;26250;45.422;11.100;2022-07-29T07:01:21;9.10;;;3.78;;
40555;SDS011;26250;45.422;11.100;2022-07-29T07:03:48;6.40;;;3.72;;
40555;SDS011;26250;45.422;11.100;2022-07-29T07:06:15;4.13;;;3.13;;
40555;SDS011;26250;45.422;11.100;2022-07-29T07:08:42;5.57;;;3.80;;
40555;SDS011;26250;45.422;11.100;2022-07-29T07:11:09;3.50;;;3.13;;
40555;SDS011;26250;45.422;11.100;2022-07-29T07:13:37;6.70;;;2.92;;
40555;SDS011;26250;45.422;11.100;2022-07-29T07:16:04;4.55;;;3.38;;
40555;SDS011;26250;45.422;11.100;2022-07-29T07:18:31;12.25;;;3.70;;
40555;SDS011;26250;45.422;11.100;2022-07-29T07:20:58;7.15;;;3.47;;
40555;SDS011;26250;45.422;11.100;2022-07-29T07:23:25;4.45;;;3.15;;
40555;SDS011;26250;45.422;11.100;2022-07-29T07:25:52;7.10;;;4.07;;
40555;SDS011;26250;45.422;11.100;2022-07-29T07:28:19;12.30;;;3.55;;
40555;SDS011;26250;45.422;11.100;2022-07-29T07:30:50;13.35;;;4.00;;
40555;SDS011;26250;45.422;11.100;2022-07-29T07:33:18;8.05;;;3.97;;
40555;SDS011;26250;45.422;11.100;2022-07-29T07:35:45;6.45;;;3.88;;
40555;SDS011;26250;45.422;11.100;2022-07-29T07:38:12;6.93;;;4.95;;
40555;SDS011;26250;45.422;11.100;2022-07-29T07:40:39;4.97;;;3.78;;
40555;SDS011;26250;45.422;11.100;2022-07-29T07:43:07;5.43;;;3.95;;
40555;SDS011;26250;45.422;11.100;2022-07-29T07:45:34;8.93;;;5.03;;
40555;SDS011;26250;45.422;11.100;2022-07-29T07:48:03;4.95;;;4.30;;
40555;SDS011;26250;45.422;11.100;2022-07-29T07:50:31;8.00;;;4.93;;
40555;SDS011;26250;45.422;11.100;2022-07-29T07:52:58;8.43;;;5.10;;
40555;SDS011;26250;45.422;11.100;2022-07-29T07:55:27;7.68;;;5.63;;
40555;SDS011;26250;45.422;11.100;2022-07-29T07:58:14;6.80;;;4.93;;
40555;SDS011;26250;45.422;11.100;2022-07-29T08:00:41;7.40;;;4.32;;
40555;SDS011;26250;45.422;11.100;2022-07-29T08:03:08;8.13;;;5.80;;
40555;SDS011;26250;45.422;11.100;2022-07-29T08:05:42;5.40;;;4.40;;
40555;SDS011;26250;45.422;11.100;2022-07-29T08:08:09;6.00;;;5.32;;
40555;SDS011;26250;45.422;11.100;2022-07-29T08:10:36;10.23;;;4.47;;
40555;SDS011;26250;45.422;11.100;2022-07-29T08:13:19;6.30;;;4.22;;
40555;SDS011;26250;45.422;11.100;2022-07-29T08:15:47;7.50;;;5.43;;
40555;SDS011;26250;45.422;11.100;2022-07-29T08:18:24;5.18;;;4.35;;
40555;SDS011;26250;45.422;11.100;2022-07-29T08:20:51;6.30;;;4.25;;
40555;SDS011;26250;45.422;11.100;2022-07-29T08:23:19;6.63;;;4.63;;
40555;SDS011;26250;45.422;11.100;2022-07-29T08:25:46;6.40;;;4.20;;
40555;SDS011;26250;45.422;11.100;2022-07-29T08:28:15;6.53;;;4.30;;
40555;SDS011;26250;45.422;11.100;2022-07-29T08:30:43;5.45;;;3.90;;
40555;SDS011;26250;45.422;11.100;2022-07-29T08:33:09;4.03;;;3.63;;
40555;SDS011;26250;45.422;11.100;2022-07-29T08:35:36;11.00;;;3.75;;
40555;SDS011;26250;45.422;11.100;2022-07-29T08:38:05;7.22;;;4.60;;
40555;SDS011;26250;45.422;11.100;2022-07-29T08:40:33;4.22;;;3.47;;
40555;SDS011;26250;45.422;11.100;2022-07-29T08:43:06;10.90;;;4.50;;
40555;SDS011;26250;45.422;11.100;2022-07-29T08:45:37;6.97;;;4.07;;
40555;SDS011;26250;45.422;11.100;2022-07-29T08:48:22;9.75;;;4.30;;
40555;SDS011;26250;45.422;11.100;2022-07-29T08:50:54;11.05;;;4.03;;
40555;SDS011;26250;45.422;11.100;2022-07-29T08:53:23;7.57;;;4.00;;
40555;SDS011;26250;45.422;11.100;2022-07-29T08:55:53;10.55;;;4.40;;
40555;SDS011;26250;45.422;11.100;2022-07-29T08:58:21;7.03;;;4.03;;
40555;SDS011;26250;45.422;11.100;2022-07-29T09:00:55;21.98;;;4.60;;
40555;SDS011;26250;45.422;11.100;2022-07-29T09:03:24;8.23;;;4.28;;
40555;SDS011;26250;45.422;11.100;2022-07-29T09:05:55;3.97;;;3.67;;
40555;SDS011;26250;45.422;11.100;2022-07-29T09:08:24;5.40;;;3.33;;
40555;SDS011;26250;45.422;11.100;2022-07-29T09:10:51;7.20;;;3.70;;
40555;SDS011;26250;45.422;11.100;2022-07-29T09:13:18;5.97;;;3.63;;
40555;SDS011;26250;45.422;11.100;2022-07-29T09:15:45;5.72;;;3.33;;
40555;SDS011;26250;45.422;11.100;2022-07-29T09:18:12;4.78;;;3.88;;
40555;SDS011;26250;45.422;11.100;2022-07-29T09:20:58;9.80;;;2.85;;
40555;SDS011;26250;45.422;11.100;2022-07-29T09:26:28;6.80;;;3.90;;
40555;SDS011;26250;45.422;11.100;2022-07-29T09:28:57;9.57;;;4.25;;
40555;SDS011;26250;45.422;11.100;2022-07-29T09:31:35;9.27;;;3.80;;
40555;SDS011;26250;45.422;11.100;2022-07-29T09:34:05;4.70;;;3.40;;
40555;SDS011;26250;45.422;11.100;2022-07-29T09:36:39;9.80;;;3.50;;
40555;SDS011;26250;45.422;11.100;2022-07-29T09:39:06;5.78;;;4.28;;
40555;SDS011;26250;45.422;11.100;2022-07-29T09:41:44;10.77;;;5.50;;
40555;SDS011;26250;45.422;11.100;2022-07-29T09:44:12;6.25;;;3.60;;
40555;SDS011;26250;45.422;11.100;2022-07-29T09:46:39;9.05;;;3.78;;
40555;SDS011;26250;45.422;11.100;2022-07-29T09:49:12;4.32;;;3.08;;
40555;SDS011;26250;45.422;11.100;2022-07-29T09:54:25;4.72;;;3.50;;
40555;SDS011;26250;45.422;11.100;2022-07-29T09:56:54;7.30;;;4.82;;
40555;SDS011;26250;45.422;11.100;2022-07-29T09:59:22;9.30;;;3.83;;
40555;SDS011;26250;45.422;11.100;2022-07-29T10:01:52;4.60;;;3.58;;
40555;SDS011;26250;45.422;11.100;2022-07-29T10:04:20;6.80;;;3.30;;
40555;SDS011;26250;45.422;11.100;2022-07-29T10:07:00;7.38;;;4.28;;
40555;SDS011;26250;45.422;11.100;2022-07-29T10:09:31;6.70;;;4.97;;
40555;SDS011;26250;45.422;11.100;2022-07-29T10:12:03;6.03;;;3.63;;
40555;SDS011;26250;45.422;11.100;2022-07-29T10:14:37;8.52;;;3.53;;
40555;SDS011;26250;45.422;11.100;2022-07-29T10:17:05;7.93;;;3.95;;
40555;SDS011;26250;45.422;11.100;2022-07-29T10:19:33;5.72;;;3.60;;
40555;SDS011;26250;45.422;11.100;2022-07-29T10:22:02;5.05;;;3.67;;
40555;SDS011;26250;45.422;11.100;2022-07-29T10:24:31;5.22;;;3.50;;
40555;SDS011;26250;45.422;11.100;2022-07-29T10:27:00;12.20;;;2.53;;
40555;SDS011;26250;45.422;11.100;2022-07-29T10:29:28;5.68;;;3.30;;
40555;SDS011;26250;45.422;11.100;2022-07-29T10:32:45;4.82;;;3.75;;
40555;SDS011;26250;45.422;11.100;2022-07-29T10:44:07;5.93;;;3.83;;
40555;SDS011;26250;45.422;11.100;2022-07-29T10:46:44;5.25;;;3.40;;
40555;SDS011;26250;45.422;11.100;2022-07-29T10:49:16;3.47;;;3.10;;
40555;SDS011;26250;45.422;11.100;2022-07-29T10:57:20;6.50;;;3.75;;
40555;SDS011;26250;45.422;11.100;2022-07-29T11:02:42;4.55;;;3.55;;
40555;SDS011;26250;45.422;11.100;2022-07-29T11:05:30;5.20;;;3.63;;
40555;SDS011;26250;45.422;11.100;2022-07-29T11:08:20;6.70;;;3.63;;
40555;SDS011;26250;45.422;11.100;2022-07-29T11:10:52;3.55;;;2.88;;
40555;SDS011;26250;45.422;11.100;2022-07-29T11:16:09;6.22;;;3.58;;
40555;SDS011;26250;45.422;11.100;2022-07-29T11:21:40;7.68;;;3.80;;
40555;SDS011;26250;45.422;11.100;2022-07-29T11:24:22;4.20;;;3.47;;
40555;SDS011;26250;45.422;11.100;2022-07-29T11:27:15;4.45;;;3.55;;
40555;SDS011;26250;45.422;11.100;2022-07-29T11:32:22;11.07;;;3.58;;
40555;SDS011;26250;45.422;11.100;2022-07-29T11:35:13;5.95;;;3.53;;
40555;SDS011;26250;45.422;11.100;2022-07-29T11:38:37;4.10;;;3.22;;
40555;SDS011;26250;45.422;11.100;2022-07-29T11:43:47;7.57;;;4.30;;
40555;SDS011;26250;45.422;11.100;2022-07-29T11:46:17;4.57;;;3.63;;
40555;SDS011;26250;45.422;11.100;2022-07-29T11:49:04;8.13;;;3.50;;
40555;SDS011;26250;45.422;11.100;2022-07-29T11:51:37;8.57;;;3.60;;
40555;SDS011;26250;45.422;11.100;2022-07-29T11:54:26;3.17;;;2.95;;
40555;SDS011;26250;45.422;11.100;2022-07-29T11:57:18;8.90;;;3.53;;
40555;SDS011;26250;45.422;11.100;2022-07-29T11:59:47;12.65;;;3.75;;
40555;SDS011;26250;45.422;11.100;2022-07-29T12:02:14;5.20;;;3.33;;
40555;SDS011;26250;45.422;11.100;2022-07-29T12:05:02;6.53;;;3.90;;
40555;SDS011;26250;45.422;11.100;2022-07-29T12:07:36;11.55;;;3.17;;
40555;SDS011;26250;45.422;11.100;2022-07-29T12:10:04;5.30;;;3.95;;
40555;SDS011;26250;45.422;11.100;2022-07-29T12:12:36;11.88;;;3.80;;
40555;SDS011;26250;45.422;11.100;2022-07-29T12:15:14;9.23;;;4.25;;
40555;SDS011;26250;45.422;11.100;2022-07-29T12:18:10;11.02;;;3.55;;
40555;SDS011;26250;45.422;11.100;2022-07-29T12:20:44;6.32;;;3.65;;
40555;SDS011;26250;45.422;11.100;2022-07-29T12:23:11;7.00;;;4.93;;
40555;SDS011;26250;45.422;11.100;2022-07-29T12:25:41;10.23;;;4.03;;
40555;SDS011;26250;45.422;11.100;2022-07-29T12:28:15;7.05;;;3.85;;
40555;SDS011;26250;45.422;11.100;2022-07-29T12:30:52;4.78;;;4.25;;
40555;SDS011;26250;45.422;11.100;2022-07-29T12:35:56;7.90;;;4.63;;
40555;SDS011;26250;45.422;11.100;2022-07-29T12:38:35;10.43;;;5.53;;
40555;SDS011;26250;45.422;11.100;2022-07-29T12:41:03;6.05;;;4.85;;
40555;SDS011;26250;45.422;11.100;2022-07-29T12:43:30;10.02;;;6.20;;
40555;SDS011;26250;45.422;11.100;2022-07-29T12:46:10;5.53;;;4.18;;
40555;SDS011;26250;45.422;11.100;2022-07-29T12:48:42;11.93;;;4.38;;
40555;SDS011;26250;45.422;11.100;2022-07-29T12:51:10;5.78;;;3.67;;
40555;SDS011;26250;45.422;11.100;2022-07-29T12:53:38;7.45;;;4.15;;
40555;SDS011;26250;45.422;11.100;2022-07-29T12:56:05;4.72;;;3.85;;
40555;SDS011;26250;45.422;11.100;2022-07-29T12:59:10;4.20;;;3.80;;
40555;SDS011;26250;45.422;11.100;2022-07-29T13:01:42;10.77;;;4.05;;
40555;SDS011;26250;45.422;11.100;2022-07-29T13:04:09;9.55;;;4.15;;
40555;SDS011;26250;45.422;11.100;2022-07-29T13:11:44;6.03;;;4.13;;
40555;SDS011;26250;45.422;11.100;2022-07-29T13:14:59;10.35;;;4.13;;
40555;SDS011;26250;45.422;11.100;2022-07-29T13:17:10;4.13;;;3.67;;
40555;SDS011;26250;45.422;11.100;2022-07-29T13:22:08;11.15;;;4.13;;
40555;SDS011;26250;45.422;11.100;2022-07-29T13:27:20;5.30;;;4.10;;
40555;SDS011;26250;45.422;11.100;2022-07-29T13:29:48;10.27;;;4.50;;
40555;SDS011;26250;45.422;11.100;2022-07-29T13:32:19;6.80;;;4.13;;
40555;SDS011;26250;45.422;11.100;2022-07-29T13:34:54;5.47;;;3.75;;
40555;SDS011;26250;45.422;11.100;2022-07-29T13:37:23;6.35;;;4.15;;
40555;SDS011;26250;45.422;11.100;2022-07-29T13:39:50;5.90;;;4.05;;
40555;SDS011;26250;45.422;11.100;2022-07-29T13:42:18;5.90;;;3.92;;
40555;SDS011;26250;45.422;11.100;2022-07-29T13:44:45;13.50;;;3.97;;
40555;SDS011;26250;45.422;11.100;2022-07-29T13:47:14;5.13;;;3.85;;
40555;SDS011;26250;45.422;11.100;2022-07-29T13:49:42;6.32;;;3.80;;
40555;SDS011;26250;45.422;11.100;2022-07-29T13:52:09;4.40;;;4.00;;
40555;SDS011;26250;45.422;11.100;2022-07-29T13:54:37;11.57;;;4.85;;
40555;SDS011;26250;45.422;11.100;2022-07-29T13:57:08;4.78;;;4.30;;
40555;SDS011;26250;45.422;11.100;2022-07-29T13:59:37;5.40;;;3.55;;
40555;SDS011;26250;45.422;11.100;2022-07-29T14:02:08;15.05;;;4.88;;
40555;SDS011;26250;45.422;11.100;2022-07-29T14:04:36;5.18;;;4.20;;
40555;SDS011;26250;45.422;11.100;2022-07-29T14:07:05;4.72;;;4.13;;
40555;SDS011;26250;45.422;11.100;2022-07-29T14:09:32;6.68;;;4.57;;
40555;SDS011;26250;45.422;11.100;2022-07-29T14:12:07;6.13;;;4.55;;
40555;SDS011;26250;45.422;11.100;2022-07-29T14:14:34;7.10;;;4.45;;
40555;SDS011;26250;45.422;11.100;2022-07-29T14:17:03;6.35;;;4.63;;
40555;SDS011;26250;45.422;11.100;2022-07-29T14:19:33;7.40;;;4.30;;
40555;SDS011;26250;45.422;11.100;2022-07-29T14:22:05;5.10;;;3.58;;
40555;SDS011;26250;45.422;11.100;2022-07-29T14:24:34;8.27;;;3.97;;
40555;SDS011;26250;45.422;11.100;2022-07-29T14:27:03;6.28;;;3.95;;
40555;SDS011;26250;45.422;11.100;2022-07-29T14:29:31;5.80;;;3.80;;
40555;SDS011;26250;45.422;11.100;2022-07-29T14:32:04;7.32;;;3.92;;
40555;SDS011;26250;45.422;11.100;2022-07-29T14:34:33;5.13;;;3.67;;
40555;SDS011;26250;45.422;11.100;2022-07-29T14:37:00;7.65;;;3.92;;
40555;SDS011;26250;45.422;11.100;2022-07-29T14:39:29;4.10;;;3.25;;
40555;SDS011;26250;45.422;11.100;2022-07-29T14:41:57;9.55;;;4.35;;
40555;SDS011;26250;45.422;11.100;2022-07-29T14:44:25;9.52;;;4.32;;
40555;SDS011;26250;45.422;11.100;2022-07-29T14:47:00;8.23;;;3.85;;
40555;SDS011;26250;45.422;11.100;2022-07-29T14:49:33;4.20;;;3.78;;
40555;SDS011;26250;45.422;11.100;2022-07-29T14:52:01;5.55;;;3.72;;
40555;SDS011;26250;45.422;11.100;2022-07-29T14:54:28;5.25;;;3.67;;
40555;SDS011;26250;45.422;11.100;2022-07-29T14:56:55;7.53;;;3.60;;
40555;SDS011;26250;45.422;11.100;2022-07-29T14:59:24;6.90;;;4.13;;
40555;SDS011;26250;45.422;11.100;2022-07-29T15:01:51;5.80;;;3.78;;
40555;SDS011;26250;45.422;11.100;2022-07-29T15:04:18;6.88;;;4.13;;
40555;SDS011;26250;45.422;11.100;2022-07-29T15:06:45;6.25;;;3.67;;
40555;SDS011;26250;45.422;11.100;2022-07-29T15:09:12;6.43;;;4.22;;
40555;SDS011;26250;45.422;11.100;2022-07-29T15:11:39;5.38;;;3.85;;
40555;SDS011;26250;45.422;11.100;2022-07-29T15:14:06;6.63;;;3.75;;
40555;SDS011;26250;45.422;11.100;2022-07-29T15:16:36;5.88;;;3.47;;
40555;SDS011;26250;45.422;11.100;2022-07-29T15:19:09;7.47;;;3.63;;
40555;SDS011;26250;45.422;11.100;2022-07-29T15:21:36;5.47;;;3.60;;
40555;SDS011;26250;45.422;11.100;2022-07-29T15:24:14;12.93;;;4.55;;
40555;SDS011;26250;45.422;11.100;2022-07-29T15:26:42;4.75;;;3.70;;
40555;SDS011;26250;45.422;11.100;2022-07-29T15:29:10;4.25;;;3.80;;
40555;SDS011;26250;45.422;11.100;2022-07-29T15:31:37;4.95;;;3.53;;
40555;SDS011;26250;45.422;11.100;2022-07-29T15:34:05;7.65;;;3.95;;
40555;SDS011;26250;45.422;11.100;2022-07-29T15:36:32;6.63;;;3.78;;
40555;SDS011;26250;45.422;11.100;2022-07-29T15:39:18;5.30;;;3.70;;
40555;SDS011;26250;45.422;11.100;2022-07-29T15:41:46;6.65;;;4.00;;
40555;SDS011;26250;45.422;11.100;2022-07-29T15:44:13;5.82;;;4.25;;
40555;SDS011;26250;45.422;11.100;2022-07-29T15:46:40;7.40;;;3.65;;
40555;SDS011;26250;45.422;11.100;2022-07-29T15:49:27;8.77;;;5.05;;
40555;SDS011;26250;45.422;11.100;2022-07-29T15:52:15;15.20;;;4.82;;
40555;SDS011;26250;45.422;11.100;2022-07-29T15:54:43;7.40;;;4.70;;
40555;SDS011;26250;45.422;11.100;2022-07-29T15:57:11;7.40;;;4.85;;
40555;SDS011;26250;45.422;11.100;2022-07-29T15:59:38;5.30;;;4.30;;
40555;SDS011;26250;45.422;11.100;2022-07-29T16:02:05;7.35;;;4.60;;
40555;SDS011;26250;45.422;11.100;2022-07-29T16:04:32;9.45;;;4.90;;
40555;SDS011;26250;45.422;11.100;2022-07-29T16:06:59;8.93;;;4.80;;